Time;durP1;ratioP1;P1;durP2;ratioP2;P2;SDS_P1;SDS_P2;PMS_P1;PMS_P2;Temp;Humidity;BMP_temperature;BMP_pressure;BME280_temperature;BME280_humidity;BME280_pressure;Samples;Min_cycle;Max_cycle;Signal;HPM_P1;HPM_P2
2022/03/27 00:01:07;;;;;;;13.83;9.57;;;;;;;;;;5031871;28;20231;-78
2022/03/27 00:03:35;;;;;;;15.90;10.07;;;;;;;;;;5023436;28;20207;-78
2022/03/27 00:06:02;;;;;;;15.57;9.83;;;;;;;;;;5012277;28;20658;-78
2022/03/27 00:08:29;;;;;;;15.93;10.00;;;;;;;;;;5012163;28;20677;-79
2022/03/27 00:13:41;;;;;;;17.73;10.23;;;;;;;;;;5012488;28;20937;-78
2022/03/27 00:16:10;;;;;;;12.30;9.47;;;;;;;;;;5027201;28;20241;-77
2022/03/27 00:18:37;;;;;;;17.43;10.93;;;;;;;;;;5032013;28;20227;-78
2022/03/27 00:21:04;;;;;;;17.10;9.93;;;;;;;;;;5024311;28;20660;-78
2022/03/27 00:23:31;;;;;;;20.03;10.57;;;;;;;;;;5012263;28;20211;-77
2022/03/27 00:25:58;;;;;;;12.70;9.07;;;;;;;;;;5011897;28;20238;-78
2022/03/27 00:28:31;;;;;;;17.73;9.63;;;;;;;;;;5012188;28;20289;-77
2022/03/27 00:30:58;;;;;;;12.80;8.77;;;;;;;;;;5011412;28;20239;-78
2022/03/27 00:33:27;;;;;;;13.10;8.83;;;;;;;;;;5029084;28;20203;-77
2022/03/27 00:35:54;;;;;;;10.67;9.07;;;;;;;;;;5031482;28;20321;-79
2022/03/27 00:38:21;;;;;;;15.83;9.17;;;;;;;;;;5031793;28;20218;-77
2022/03/27 00:40:49;;;;;;;13.87;9.17;;;;;;;;;;5031528;28;20238;-79
2022/03/27 00:43:16;;;;;;;13.87;9.37;;;;;;;;;;5031643;28;20234;-78
2022/03/27 00:45:43;;;;;;;13.90;9.37;;;;;;;;;;5031689;28;20245;-78
2022/03/27 00:48:10;;;;;;;18.57;9.60;;;;;;;;;;5031796;28;20230;-78
2022/03/27 00:50:38;;;;;;;15.30;9.77;;;;;;;;;;5031565;28;20591;-78
2022/03/27 00:53:06;;;;;;;15.20;8.93;;;;;;;;;;5031318;28;20214;-77
2022/03/27 00:55:33;;;;;;;15.23;9.47;;;;;;;;;;5031911;28;20214;-78
2022/03/27 00:58:01;;;;;;;12.80;9.63;;;;;;;;;;5031809;28;20210;-77
2022/03/27 01:00:51;;;;;;;19.40;10.13;;;;;;;;;;5029964;28;20703;-77
2022/03/27 01:03:20;;;;;;;16.07;9.73;;;;;;;;;;5007381;28;20299;-77
2022/03/27 01:05:49;;;;;;;16.53;10.07;;;;;;;;;;5031672;28;20307;-78
2022/03/27 01:09:35;;;;;;;14.90;9.13;;;;;;;;;;5021762;28;20258;-77
2022/03/27 01:11:09;;;;;;;18.23;10.87;;;;;;;;;;5031581;28;20234;-78
2022/03/27 01:13:36;;;;;;;23.43;10.70;;;;;;;;;;5035635;28;20273;-77
2022/03/27 01:16:03;;;;;;;14.97;10.50;;;;;;;;;;5034889;28;20234;-78
2022/03/27 01:18:30;;;;;;;15.37;10.47;;;;;;;;;;5035230;28;20556;-77
2022/03/27 01:20:59;;;;;;;15.70;10.10;;;;;;;;;;5025202;28;20246;-78
2022/03/27 01:23:26;;;;;;;17.27;11.00;;;;;;;;;;5015800;28;20215;-78
2022/03/27 01:25:53;;;;;;;14.57;10.03;;;;;;;;;;5015490;28;20232;-77
2022/03/27 01:28:20;;;;;;;14.73;10.00;;;;;;;;;;5031350;28;20697;-78
2022/03/27 01:30:47;;;;;;;16.90;11.13;;;;;;;;;;5034392;28;20241;-77
2022/03/27 01:33:14;;;;;;;16.70;10.10;;;;;;;;;;5021593;28;20251;-78
2022/03/27 01:35:41;;;;;;;20.17;10.13;;;;;;;;;;5014821;28;20244;-77
2022/03/27 01:38:09;;;;;;;14.57;9.97;;;;;;;;;;5015114;28;20210;-78
2022/03/27 01:40:36;;;;;;;18.23;10.47;;;;;;;;;;5014658;28;20645;-78
2022/03/27 01:43:03;;;;;;;14.37;10.03;;;;;;;;;;5015177;28;20216;-77
2022/03/27 01:45:31;;;;;;;14.53;9.53;;;;;;;;;;5014608;28;20240;-77
2022/03/27 01:47:59;;;;;;;12.77;8.80;;;;;;;;;;5014954;28;20234;-77
2022/03/27 01:50:26;;;;;;;16.33;9.77;;;;;;;;;;5027642;28;20242;-77
2022/03/27 01:52:53;;;;;;;13.23;8.87;;;;;;;;;;5035248;28;20208;-77
2022/03/27 01:55:21;;;;;;;14.47;10.33;;;;;;;;;;5034018;28;20260;-77
2022/03/27 01:57:48;;;;;;;15.53;10.50;;;;;;;;;;5034536;28;20209;-77
2022/03/27 02:00:15;;;;;;;16.33;10.07;;;;;;;;;;5034112;28;20228;-77
2022/03/27 02:02:42;;;;;;;15.47;9.13;;;;;;;;;;5034648;28;20210;-77
2022/03/27 02:05:11;;;;;;;17.30;10.00;;;;;;;;;;5033837;28;20207;-77
2022/03/27 02:07:39;;;;;;;16.10;9.80;;;;;;;;;;5034030;28;20218;-77
2022/03/27 02:10:06;;;;;;;14.63;9.87;;;;;;;;;;5033937;28;20232;-77
2022/03/27 02:12:35;;;;;;;15.23;9.80;;;;;;;;;;5034444;28;20257;-77
2022/03/27 02:15:02;;;;;;;14.77;9.30;;;;;;;;;;5034428;28;20212;-77
2022/03/27 02:17:29;;;;;;;15.13;9.50;;;;;;;;;;5033883;28;20232;-78
2022/03/27 02:19:56;;;;;;;16.07;9.77;;;;;;;;;;5034306;28;20303;-77
2022/03/27 02:22:23;;;;;;;13.80;9.43;;;;;;;;;;5032179;28;20242;-78
2022/03/27 02:24:50;;;;;;;16.70;10.13;;;;;;;;;;5034193;28;20241;-77
2022/03/27 02:27:17;;;;;;;16.60;10.03;;;;;;;;;;5033264;28;20248;-78
2022/03/27 02:29:45;;;;;;;13.13;9.43;;;;;;;;;;5033747;28;20256;-77
2022/03/27 02:32:14;;;;;;;15.23;10.20;;;;;;;;;;5033529;28;20286;-77
2022/03/27 02:34:41;;;;;;;16.70;9.90;;;;;;;;;;5033748;28;20598;-78
2022/03/27 02:37:08;;;;;;;19.47;10.73;;;;;;;;;;5032620;28;20257;-77
2022/03/27 02:39:35;;;;;;;17.40;10.00;;;;;;;;;;5033529;28;20281;-77
2022/03/27 02:42:02;;;;;;;14.50;10.07;;;;;;;;;;5033174;28;20235;-77
2022/03/27 02:44:29;;;;;;;14.80;9.60;;;;;;;;;;5033882;28;20206;-77
2022/03/27 02:46:59;;;;;;;14.43;9.63;;;;;;;;;;5032961;28;20238;-77
2022/03/27 02:49:26;;;;;;;14.93;9.13;;;;;;;;;;5033656;28;20258;-77
2022/03/27 02:51:53;;;;;;;16.10;10.30;;;;;;;;;;5033232;28;20238;-77
2022/03/27 02:54:20;;;;;;;17.77;10.70;;;;;;;;;;5033672;28;20268;-77
2022/03/27 02:56:47;;;;;;;15.50;9.60;;;;;;;;;;5032936;28;20235;-77
2022/03/27 02:59:16;;;;;;;15.97;9.43;;;;;;;;;;5033180;28;20601;-77
2022/03/27 03:01:43;;;;;;;14.30;9.10;;;;;;;;;;5032740;28;20313;-78
2022/03/27 03:04:13;;;;;;;16.33;9.50;;;;;;;;;;5033181;28;20249;-77
2022/03/27 03:06:42;;;;;;;13.20;9.77;;;;;;;;;;5032606;28;20241;-77
2022/03/27 03:09:10;;;;;;;13.07;9.70;;;;;;;;;;5033166;28;20317;-77
2022/03/27 03:11:37;;;;;;;14.40;9.77;;;;;;;;;;5032525;28;20325;-78
2022/03/27 03:14:04;;;;;;;16.37;9.73;;;;;;;;;;5013269;28;20699;-77
2022/03/27 03:16:32;;;;;;;14.10;9.67;;;;;;;;;;5012791;28;20237;-78
2022/03/27 03:18:59;;;;;;;15.40;9.73;;;;;;;;;;5013326;28;20622;-78
2022/03/27 03:21:27;;;;;;;14.57;9.37;;;;;;;;;;5012709;28;20231;-77
2022/03/27 03:23:54;;;;;;;17.83;9.60;;;;;;;;;;5013568;28;20616;-77
2022/03/27 03:26:22;;;;;;;16.67;9.43;;;;;;;;;;5012500;28;20285;-77
2022/03/27 03:28:49;;;;;;;14.10;9.83;;;;;;;;;;5012954;28;20324;-77
2022/03/27 03:31:16;;;;;;;17.23;10.87;;;;;;;;;;5012534;28;20762;-77
2022/03/27 03:33:43;;;;;;;13.03;9.13;;;;;;;;;;5012411;28;20572;-78
2022/03/27 03:36:10;;;;;;;17.80;9.90;;;;;;;;;;5012387;28;20293;-78
2022/03/27 03:38:39;;;;;;;16.87;10.10;;;;;;;;;;5012887;28;20213;-78
2022/03/27 03:41:06;;;;;;;14.90;9.47;;;;;;;;;;5027391;28;20235;-77
2022/03/27 03:43:33;;;;;;;14.77;9.63;;;;;;;;;;5013106;28;20208;-77
2022/03/27 03:46:00;;;;;;;12.57;9.20;;;;;;;;;;5012429;28;20614;-77
2022/03/27 03:48:27;;;;;;;19.83;10.43;;;;;;;;;;5012465;28;20199;-77
2022/03/27 03:50:54;;;;;;;17.17;10.90;;;;;;;;;;5012194;28;20242;-78
2022/03/27 03:53:22;;;;;;;16.87;9.93;;;;;;;;;;5012532;28;20212;-77
2022/03/27 03:55:50;;;;;;;14.90;10.30;;;;;;;;;;5012179;28;20235;-77
2022/03/27 03:58:17;;;;;;;15.40;9.67;;;;;;;;;;5012642;28;20215;-77
2022/03/27 04:00:46;;;;;;;18.00;10.07;;;;;;;;;;5012303;28;20615;-78
2022/03/27 04:03:14;;;;;;;18.60;10.57;;;;;;;;;;5012406;28;20203;-77
2022/03/27 04:05:41;;;;;;;14.00;9.17;;;;;;;;;;5012408;28;20249;-77
2022/03/27 04:08:08;;;;;;;14.00;9.37;;;;;;;;;;5012389;28;20203;-77
2022/03/27 04:10:35;;;;;;;18.13;10.67;;;;;;;;;;5026259;28;20246;-77
2022/03/27 04:13:04;;;;;;;17.47;9.57;;;;;;;;;;5032145;28;20210;-79
2022/03/27 04:15:31;;;;;;;14.93;10.50;;;;;;;;;;5031797;28;20745;-78
2022/03/27 04:18:00;;;;;;;16.80;9.70;;;;;;;;;;5032236;28;20214;-77
2022/03/27 04:20:27;;;;;;;14.73;10.30;;;;;;;;;;5031627;28;20254;-78
2022/03/27 04:22:54;;;;;;;13.70;9.80;;;;;;;;;;5032179;28;20261;-77
2022/03/27 04:25:21;;;;;;;16.17;10.77;;;;;;;;;;5031661;28;20207;-77
2022/03/27 04:27:48;;;;;;;16.50;10.13;;;;;;;;;;5032030;28;20215;-77
2022/03/27 04:30:17;;;;;;;16.23;10.47;;;;;;;;;;5038785;28;20238;-79
2022/03/27 04:32:44;;;;;;;16.67;9.73;;;;;;;;;;5044480;28;20241;-79
2022/03/27 04:35:11;;;;;;;13.30;10.00;;;;;;;;;;5044744;28;20249;-78
2022/03/27 04:37:39;;;;;;;15.07;9.57;;;;;;;;;;5030200;28;20203;-79
2022/03/27 04:40:06;;;;;;;15.57;9.80;;;;;;;;;;5024243;28;20253;-79
2022/03/27 04:42:33;;;;;;;17.10;9.17;;;;;;;;;;5024099;28;20203;-78
2022/03/27 04:45:00;;;;;;;16.27;10.23;;;;;;;;;;5024352;28;20230;-79
2022/03/27 04:47:29;;;;;;;15.73;9.50;;;;;;;;;;5027078;28;20223;-78
2022/03/27 04:49:56;;;;;;;14.70;10.30;;;;;;;;;;5028809;28;20723;-78
2022/03/27 04:52:23;;;;;;;17.93;10.37;;;;;;;;;;5028538;28;20289;-78
2022/03/27 04:54:50;;;;;;;12.80;10.13;;;;;;;;;;5028490;28;20211;-78
2022/03/27 04:57:17;;;;;;;14.37;9.70;;;;;;;;;;5027921;28;20656;-78
2022/03/27 04:59:44;;;;;;;13.70;9.93;;;;;;;;;;5028420;28;20278;-78
2022/03/27 05:02:11;;;;;;;14.80;10.13;;;;;;;;;;5027764;28;20355;-79
2022/03/27 05:04:41;;;;;;;12.60;8.77;;;;;;;;;;5028657;28;20277;-79
2022/03/27 05:07:08;;;;;;;17.07;10.60;;;;;;;;;;5027474;28;20242;-79
2022/03/27 05:09:35;;;;;;;14.53;10.30;;;;;;;;;;5028056;28;20238;-78
2022/03/27 05:12:02;;;;;;;15.87;9.67;;;;;;;;;;5027648;28;20239;-78
2022/03/27 05:14:29;;;;;;;15.67;10.47;;;;;;;;;;5028918;28;20230;-79
2022/03/27 05:16:56;;;;;;;13.47;9.53;;;;;;;;;;5028802;28;20262;-77
2022/03/27 05:19:23;;;;;;;18.07;9.60;;;;;;;;;;5029526;28;20219;-78
2022/03/27 05:21:52;;;;;;;14.77;9.63;;;;;;;;;;5029518;28;20227;-78
2022/03/27 05:24:19;;;;;;;14.50;9.63;;;;;;;;;;5031721;28;20218;-78
2022/03/27 05:26:46;;;;;;;16.10;10.40;;;;;;;;;;5032493;28;20651;-79
2022/03/27 05:29:13;;;;;;;13.87;9.50;;;;;;;;;;5031823;28;20227;-77
2022/03/27 05:31:40;;;;;;;17.33;10.33;;;;;;;;;;5028689;28;20250;-79
2022/03/27 05:34:07;;;;;;;17.20;10.03;;;;;;;;;;5028340;28;20205;-78
2022/03/27 05:36:34;;;;;;;15.40;10.60;;;;;;;;;;5028412;28;20242;-78
2022/03/27 05:39:03;;;;;;;15.87;10.07;;;;;;;;;;5028899;28;20227;-78
2022/03/27 05:41:30;;;;;;;17.60;10.60;;;;;;;;;;5028371;28;20246;-78
2022/03/27 05:43:57;;;;;;;15.57;10.03;;;;;;;;;;5028722;28;20206;-79
2022/03/27 05:46:24;;;;;;;14.47;9.83;;;;;;;;;;5027213;28;20242;-78
2022/03/27 05:48:51;;;;;;;15.60;10.83;;;;;;;;;;5027626;28;20206;-77
2022/03/27 05:51:18;;;;;;;19.30;10.07;;;;;;;;;;5027256;28;20237;-78
2022/03/27 05:53:45;;;;;;;19.43;10.53;;;;;;;;;;5027827;28;20217;-77
2022/03/27 05:56:14;;;;;;;21.20;10.07;;;;;;;;;;5027830;28;20246;-78
2022/03/27 05:58:41;;;;;;;16.27;11.90;;;;;;;;;;5027609;28;20207;-78
2022/03/27 06:01:09;;;;;;;17.13;11.60;;;;;;;;;;5048089;28;20234;-78
2022/03/27 06:03:36;;;;;;;18.07;11.63;;;;;;;;;;5047755;28;20205;-78
2022/03/27 06:06:03;;;;;;;21.40;11.17;;;;;;;;;;5048161;28;20775;-79
2022/03/27 06:08:30;;;;;;;17.43;11.93;;;;;;;;;;5047273;28;20217;-81
2022/03/27 06:10:57;;;;;;;23.90;12.23;;;;;;;;;;5038006;28;20245;-81
2022/03/27 06:13:25;;;;;;;22.63;11.80;;;;;;;;;;5047970;28;20263;-80
2022/03/27 06:15:54;;;;;;;23.73;12.20;;;;;;;;;;5048637;28;20238;-80
2022/03/27 06:18:21;;;;;;;22.27;12.07;;;;;;;;;;5048871;28;20631;-80
2022/03/27 06:20:48;;;;;;;21.00;11.37;;;;;;;;;;5048960;28;20530;-80
2022/03/27 06:23:15;;;;;;;19.10;13.10;;;;;;;;;;5049683;28;20217;-81
2022/03/27 06:25:42;;;;;;;21.80;12.57;;;;;;;;;;5052874;28;20238;-80
2022/03/27 06:28:09;;;;;;;24.20;13.23;;;;;;;;;;5056186;28;20203;-80
2022/03/27 06:30:38;;;;;;;23.53;12.67;;;;;;;;;;5055830;28;20256;-80
2022/03/27 06:33:05;;;;;;;24.80;14.30;;;;;;;;;;5056889;28;20207;-80
2022/03/27 06:35:33;;;;;;;27.53;14.50;;;;;;;;;;5055922;28;20238;-79
2022/03/27 06:38:18;;;;;;;34.30;15.93;;;;;;;;;;5056850;28;20218;-80
2022/03/27 06:40:46;;;;;;;25.07;15.10;;;;;;;;;;5055942;28;20246;-79
2022/03/27 06:43:13;;;;;;;26.83;15.73;;;;;;;;;;5057455;28;20221;-79
2022/03/27 06:45:41;;;;;;;27.10;15.03;;;;;;;;;;5056718;28;20261;-79
2022/03/27 06:48:09;;;;;;;27.40;15.57;;;;;;;;;;5056753;28;20183;-80
2022/03/27 06:50:36;;;;;;;27.90;16.03;;;;;;;;;;5056309;28;20268;-80
2022/03/27 06:53:03;;;;;;;28.77;15.67;;;;;;;;;;5056581;28;20202;-80
2022/03/27 06:55:30;;;;;;;22.30;15.50;;;;;;;;;;5056342;28;20241;-81
2022/03/27 06:57:57;;;;;;;24.30;15.07;;;;;;;;;;5055603;28;20207;-80
2022/03/27 07:03:10;;;;;;;24.03;14.87;;;;;;;;;;5050109;28;20218;-79
2022/03/27 07:05:39;;;;;;;23.67;14.90;;;;;;;;;;5035951;28;20249;-78
2022/03/27 07:08:07;;;;;;;22.43;15.03;;;;;;;;;;5044671;28;20202;-78
2022/03/27 07:10:37;;;;;;;31.30;15.17;;;;;;;;;;5034553;28;20980;-79
2022/03/27 07:13:04;;;;;;;25.97;14.47;;;;;;;;;;5039702;28;20210;-80
2022/03/27 07:15:31;;;;;;;22.13;14.27;;;;;;;;;;5031002;28;20255;-81
2022/03/27 07:17:59;;;;;;;20.13;14.10;;;;;;;;;;5048539;28;20202;-81
2022/03/27 07:20:29;;;;;;;21.40;14.10;;;;;;;;;;5040794;28;20258;-81
2022/03/27 07:22:57;;;;;;;27.40;15.37;;;;;;;;;;5047107;28;20213;-81
2022/03/27 07:25:25;;;;;;;24.47;15.20;;;;;;;;;;5046203;28;20226;-81
2022/03/27 07:27:52;;;;;;;21.43;14.33;;;;;;;;;;5047481;28;20577;-80
2022/03/27 07:30:19;;;;;;;22.60;14.20;;;;;;;;;;5045571;28;20242;-80
2022/03/27 07:32:47;;;;;;;22.83;15.57;;;;;;;;;;5044852;28;20209;-81
2022/03/27 07:35:15;;;;;;;23.70;13.73;;;;;;;;;;5036659;28;20226;-81
2022/03/27 07:37:44;;;;;;;22.53;13.60;;;;;;;;;;5043771;28;20765;-81
2022/03/27 07:40:12;;;;;;;20.03;13.77;;;;;;;;;;5036719;28;20339;-82
2022/03/27 07:42:40;;;;;;;22.43;13.90;;;;;;;;;;5041021;28;20213;-83
2022/03/27 07:45:09;;;;;;;20.47;13.80;;;;;;;;;;5027126;28;20199;-83
2022/03/27 07:47:36;;;;;;;18.73;11.83;;;;;;;;;;5022047;28;20218;-80
2022/03/27 07:50:03;;;;;;;22.63;13.83;;;;;;;;;;5020107;28;20234;-81
2022/03/27 07:52:30;;;;;;;18.60;12.60;;;;;;;;;;5039697;28;20203;-80
2022/03/27 07:54:58;;;;;;;21.07;13.03;;;;;;;;;;5037598;28;20207;-80
2022/03/27 07:57:26;;;;;;;22.53;13.83;;;;;;;;;;5038707;28;20235;-80
2022/03/27 07:59:53;;;;;;;20.47;13.07;;;;;;;;;;5026956;28;20223;-81
2022/03/27 08:02:21;;;;;;;21.10;13.47;;;;;;;;;;5036524;28;20270;-81
2022/03/27 08:04:48;;;;;;;18.17;13.23;;;;;;;;;;5035570;28;20217;-81
2022/03/27 08:07:16;;;;;;;23.37;12.70;;;;;;;;;;5046178;28;20230;-80
2022/03/27 08:09:43;;;;;;;17.90;12.03;;;;;;;;;;5037904;28;20239;-81
2022/03/27 08:12:12;;;;;;;17.97;12.30;;;;;;;;;;5033301;28;20658;-80
2022/03/27 08:14:39;;;;;;;18.93;12.30;;;;;;;;;;5038677;28;20211;-81
2022/03/27 08:17:07;;;;;;;19.07;11.63;;;;;;;;;;5038927;28;20230;-81
2022/03/27 08:19:34;;;;;;;18.60;11.60;;;;;;;;;;5038694;28;20261;-81
2022/03/27 08:22:02;;;;;;;16.13;11.40;;;;;;;;;;5026576;28;20231;-82
2022/03/27 08:24:29;;;;;;;16.30;11.37;;;;;;;;;;5021073;28;20258;-80
2022/03/27 08:27:00;;;;;;;18.33;10.87;;;;;;;;;;5036319;28;20597;-81
2022/03/27 08:29:30;;;;;;;13.80;10.93;;;;;;;;;;5035499;28;20226;-82
2022/03/27 08:31:59;;;;;;;18.17;11.33;;;;;;;;;;5038926;28;20265;-81
2022/03/27 08:34:26;;;;;;;17.60;12.03;;;;;;;;;;5040617;28;20235;-79
2022/03/27 08:36:53;;;;;;;16.83;10.40;;;;;;;;;;5039803;28;20277;-82
2022/03/27 08:39:20;;;;;;;17.23;10.67;;;;;;;;;;5041382;28;20284;-82
2022/03/27 08:41:48;;;;;;;14.17;10.60;;;;;;;;;;5022340;28;20231;-81
2022/03/27 08:44:16;;;;;;;15.37;10.57;;;;;;;;;;5026247;28;20224;-81
2022/03/27 08:46:44;;;;;;;14.43;10.40;;;;;;;;;;5040087;28;20297;-81
2022/03/27 08:49:13;;;;;;;13.73;10.00;;;;;;;;;;5037329;28;20234;-84
2022/03/27 08:51:42;;;;;;;13.53;9.70;;;;;;;;;;5041157;28;20237;-83
2022/03/27 08:54:14;;;;;;;18.17;9.53;;;;;;;;;;5041166;28;20222;-82
2022/03/27 08:56:41;;;;;;;14.53;10.23;;;;;;;;;;5039302;28;20235;-82
2022/03/27 08:59:09;;;;;;;14.03;9.80;;;;;;;;;;5040201;28;20641;-84
2022/03/27 09:01:36;;;;;;;14.13;9.57;;;;;;;;;;5033282;28;20234;-84
2022/03/27 09:04:05;;;;;;;12.30;8.77;;;;;;;;;;5031567;28;20211;-82
2022/03/27 09:06:33;;;;;;;15.27;9.90;;;;;;;;;;5031594;28;20230;-84
2022/03/27 09:09:00;;;;;;;14.53;9.40;;;;;;;;;;5032777;28;20246;-83
2022/03/27 09:11:28;;;;;;;13.97;9.63;;;;;;;;;;5032765;28;20242;-84
2022/03/27 09:13:56;;;;;;;13.33;9.57;;;;;;;;;;5015115;28;20242;-83
2022/03/27 09:16:23;;;;;;;13.47;9.70;;;;;;;;;;5022738;28;20254;-83
2022/03/27 09:18:52;;;;;;;14.00;10.00;;;;;;;;;;5044979;28;20689;-84
2022/03/27 09:21:21;;;;;;;13.73;9.90;;;;;;;;;;5034654;28;20230;-83
2022/03/27 09:23:56;;;;;;;13.47;9.63;;;;;;;;;;5034817;28;20222;-83
2022/03/27 09:26:23;;;;;;;10.90;9.53;;;;;;;;;;5023742;28;20223;-83
2022/03/27 09:28:52;;;;;;;12.90;9.83;;;;;;;;;;5026209;28;20237;-81
2022/03/27 09:31:24;;;;;;;14.07;9.70;;;;;;;;;;5023666;28;21111;-82
2022/03/27 09:33:52;;;;;;;12.57;9.40;;;;;;;;;;5024370;28;20202;-83
2022/03/27 09:36:22;;;;;;;13.77;9.68;;;;;;;;;;5029595;28;20231;-82
2022/03/27 09:39:03;;;;;;;11.85;9.85;;;;;;;;;;5030506;28;20190;-83
2022/03/27 09:41:32;;;;;;;13.98;10.40;;;;;;;;;;5039579;28;20218;-82
2022/03/27 09:44:01;;;;;;;15.05;10.55;;;;;;;;;;5024135;28;20211;-83
2022/03/27 09:46:28;;;;;;;14.73;10.30;;;;;;;;;;5039013;28;20578;-83
2022/03/27 09:48:59;;;;;;;16.98;9.90;;;;;;;;;;5033523;28;20668;-82
2022/03/27 09:51:28;;;;;;;14.82;9.52;;;;;;;;;;5029239;28;20222;-81
2022/03/27 09:54:00;;;;;;;12.93;9.27;;;;;;;;;;5049006;28;20276;-83
2022/03/27 09:56:30;;;;;;;12.45;9.45;;;;;;;;;;5034400;28;20227;-82
2022/03/27 09:58:57;;;;;;;14.85;10.60;;;;;;;;;;5035132;28;20638;-82
2022/03/27 10:01:26;;;;;;;12.27;9.63;;;;;;;;;;5038007;28;20226;-83
2022/03/27 10:03:58;;;;;;;14.40;10.57;;;;;;;;;;5020136;28;20206;-84
2022/03/27 10:06:30;;;;;;;13.43;9.98;;;;;;;;;;5046092;28;20316;-85
2022/03/27 10:08:57;;;;;;;13.75;10.90;;;;;;;;;;5044753;28;20719;-84
2022/03/27 10:11:25;;;;;;;15.48;11.18;;;;;;;;;;5034004;28;20722;-84
2022/03/27 10:13:53;;;;;;;13.63;10.48;;;;;;;;;;5045176;28;20211;-83
2022/03/27 10:16:24;;;;;;;15.95;10.52;;;;;;;;;;5033400;28;20646;-84
2022/03/27 10:18:54;;;;;;;14.20;10.90;;;;;;;;;;5029655;28;20306;-82
2022/03/27 10:21:23;;;;;;;12.15;9.77;;;;;;;;;;5033964;28;20219;-83
2022/03/27 10:23:53;;;;;;;12.65;10.20;;;;;;;;;;5023587;28;20569;-83
2022/03/27 10:26:20;;;;;;;17.88;9.82;;;;;;;;;;5050541;28;20722;-82
2022/03/27 10:28:50;;;;;;;13.10;9.93;;;;;;;;;;5032910;28;20198;-83
2022/03/27 10:31:17;;;;;;;12.70;9.55;;;;;;;;;;5026318;28;20287;-84
2022/03/27 10:33:45;;;;;;;11.43;9.50;;;;;;;;;;5034380;28;20202;-84
2022/03/27 10:36:15;;;;;;;12.55;9.80;;;;;;;;;;5030721;28;20238;-82
2022/03/27 10:38:51;;;;;;;13.63;10.65;;;;;;;;;;5025667;28;20203;-83
2022/03/27 10:41:21;;;;;;;11.05;8.68;;;;;;;;;;5033332;28;20262;-83
2022/03/27 10:43:51;;;;;;;13.43;9.65;;;;;;;;;;5033015;28;20210;-83
2022/03/27 10:46:22;;;;;;;10.43;8.20;;;;;;;;;;5034009;28;20239;-82
2022/03/27 10:48:50;;;;;;;10.38;8.88;;;;;;;;;;5030504;28;20203;-81
2022/03/27 10:51:33;;;;;;;13.73;9.00;;;;;;;;;;5022461;28;20240;-80
2022/03/27 10:54:05;;;;;;;11.55;9.00;;;;;;;;;;5023675;28;20282;-83
2022/03/27 10:56:34;;;;;;;13.20;8.77;;;;;;;;;;5024566;28;20238;-83
2022/03/27 10:59:08;;;;;;;13.10;8.40;;;;;;;;;;5016214;28;20327;-84
2022/03/27 11:01:39;;;;;;;13.10;8.90;;;;;;;;;;5016752;28;20259;-84
2022/03/27 11:04:07;;;;;;;10.45;8.82;;;;;;;;;;5013866;28;20192;-84
2022/03/27 11:06:35;;;;;;;10.20;8.85;;;;;;;;;;5013089;28;20239;-84
2022/03/27 11:09:03;;;;;;;9.32;8.13;;;;;;;;;;5013417;28;20238;-84
2022/03/27 11:12:04;;;;;;;9.57;8.10;;;;;;;;;;5028912;28;20233;-83
2022/03/27 11:14:52;;;;;;;10.23;8.10;;;;;;;;;;5027002;28;20705;-83
2022/03/27 11:17:31;;;;;;;8.13;7.20;;;;;;;;;;5026078;28;20321;-84
2022/03/27 11:19:58;;;;;;;9.20;6.90;;;;;;;;;;5014053;28;20254;-84
2022/03/27 11:22:44;;;;;;;10.30;6.90;;;;;;;;;;5023226;28;20226;-83
2022/03/27 11:25:44;;;;;;;7.95;6.75;;;;;;;;;;5032824;28;20245;-83
2022/03/27 11:28:12;;;;;;;9.45;6.97;;;;;;;;;;5029318;28;20264;-83
2022/03/27 11:30:42;;;;;;;10.32;7.15;;;;;;;;;;5029759;28;20238;-83
2022/03/27 11:33:14;;;;;;;10.02;7.43;;;;;;;;;;5021254;28;20618;-83
2022/03/27 11:35:41;;;;;;;8.35;6.82;;;;;;;;;;5013878;28;20577;-83
2022/03/27 11:38:19;;;;;;;7.72;6.10;;;;;;;;;;5022407;28;20231;-83
2022/03/27 11:40:47;;;;;;;6.90;5.95;;;;;;;;;;5012646;28;20713;-84
2022/03/27 11:43:27;;;;;;;8.18;6.20;;;;;;;;;;5013536;28;20204;-84
2022/03/27 11:45:54;;;;;;;7.28;5.90;;;;;;;;;;5012870;28;20235;-83
2022/03/27 11:48:23;;;;;;;7.93;6.30;;;;;;;;;;5015290;28;20273;-83
2022/03/27 11:50:50;;;;;;;6.88;6.18;;;;;;;;;;5017622;28;20230;-84
2022/03/27 11:53:17;;;;;;;7.10;5.43;;;;;;;;;;5033383;28;20558;-84
2022/03/27 11:55:44;;;;;;;6.97;5.85;;;;;;;;;;5032425;28;20235;-83
2022/03/27 11:58:20;;;;;;;8.48;5.70;;;;;;;;;;5033107;28;20265;-84
2022/03/27 12:00:47;;;;;;;6.55;5.40;;;;;;;;;;5032578;28;20687;-85
2022/03/27 12:03:16;;;;;;;9.05;6.13;;;;;;;;;;5023493;28;20208;-85
2022/03/27 12:05:45;;;;;;;7.80;5.43;;;;;;;;;;5026378;28;20238;-85
2022/03/27 12:08:17;;;;;;;9.52;6.13;;;;;;;;;;5034271;28;20191;-85
2022/03/27 12:10:46;;;;;;;8.75;5.55;;;;;;;;;;5032257;28;20242;-85
2022/03/27 12:13:14;;;;;;;6.25;5.28;;;;;;;;;;5045976;28;20307;-85
2022/03/27 12:15:43;;;;;;;6.85;4.38;;;;;;;;;;5043116;28;20318;-84
2022/03/27 12:18:10;;;;;;;5.75;4.95;;;;;;;;;;5014312;28;20194;-85
2022/03/27 12:20:47;;;;;;;7.07;5.15;;;;;;;;;;5025089;28;20774;-85
2022/03/27 12:23:21;;;;;;;6.03;5.10;;;;;;;;;;5032594;28;20187;-85
2022/03/27 12:25:57;;;;;;;6.78;5.95;;;;;;;;;;5032391;28;20263;-85
2022/03/27 12:31:19;;;;;;;6.95;5.97;;;;;;;;;;5027173;28;20234;-83
2022/03/27 12:33:46;;;;;;;6.35;5.22;;;;;;;;;;5041120;28;20263;-83
2022/03/27 12:36:16;;;;;;;7.95;5.28;;;;;;;;;;5053076;28;20242;-82
2022/03/27 12:38:43;;;;;;;9.68;5.65;;;;;;;;;;5054298;28;20216;-83
2022/03/27 12:41:11;;;;;;;5.90;5.30;;;;;;;;;;5053844;28;20745;-82
2022/03/27 12:43:41;;;;;;;7.10;6.10;;;;;;;;;;5054338;28;20194;-82
2022/03/27 12:46:21;;;;;;;7.53;6.13;;;;;;;;;;5051336;28;20238;-82
2022/03/27 12:48:57;;;;;;;6.75;5.95;;;;;;;;;;5025199;28;20199;-83
2022/03/27 12:51:26;;;;;;;7.13;6.15;;;;;;;;;;5033451;28;20242;-82
2022/03/27 12:54:04;;;;;;;7.22;5.88;;;;;;;;;;5034563;28;20265;-82
2022/03/27 12:56:31;;;;;;;7.20;6.50;;;;;;;;;;5033171;28;20237;-83
2022/03/27 12:58:58;;;;;;;8.63;6.45;;;;;;;;;;5034036;28;20231;-82
2022/03/27 13:01:26;;;;;;;8.57;6.47;;;;;;;;;;5033198;28;20296;-81
2022/03/27 13:04:00;;;;;;;7.18;6.47;;;;;;;;;;5034262;28;20581;-81
2022/03/27 13:06:34;;;;;;;9.48;6.82;;;;;;;;;;5033324;28;20245;-83
2022/03/27 13:09:03;;;;;;;10.10;7.20;;;;;;;;;;5037934;28;20226;-82
2022/03/27 13:11:30;;;;;;;8.63;7.43;;;;;;;;;;5037239;28;20230;-82
2022/03/27 13:14:02;;;;;;;8.88;7.97;;;;;;;;;;5037976;28;20305;-83
2022/03/27 13:16:29;;;;;;;8.65;7.75;;;;;;;;;;5038826;28;20237;-82
2022/03/27 13:18:59;;;;;;;8.20;7.35;;;;;;;;;;5038359;28;20199;-82
2022/03/27 13:21:26;;;;;;;8.27;6.93;;;;;;;;;;5037396;28;20223;-83
2022/03/27 13:23:54;;;;;;;8.95;7.40;;;;;;;;;;5037533;28;20721;-82
2022/03/27 13:26:22;;;;;;;7.47;6.70;;;;;;;;;;5036338;28;20285;-82
2022/03/27 13:28:49;;;;;;;7.57;6.65;;;;;;;;;;5022486;28;20293;-82
2022/03/27 13:31:16;;;;;;;9.10;7.13;;;;;;;;;;5027204;28;20226;-82
2022/03/27 13:33:43;;;;;;;9.95;7.63;;;;;;;;;;5037723;28;20215;-83
2022/03/27 13:36:10;;;;;;;7.75;7.00;;;;;;;;;;5036442;28;20265;-82
2022/03/27 13:38:37;;;;;;;8.13;6.95;;;;;;;;;;5037010;28;20222;-83
2022/03/27 13:43:50;;;;;;;8.25;7.35;;;;;;;;;;5035660;28;20213;-83
2022/03/27 13:46:17;;;;;;;8.32;7.28;;;;;;;;;;5039035;28;20287;-82
2022/03/27 13:48:45;;;;;;;7.55;6.40;;;;;;;;;;5041773;28;20237;-83
2022/03/27 13:51:12;;;;;;;10.23;7.60;;;;;;;;;;5042859;28;20235;-82
2022/03/27 13:53:39;;;;;;;9.55;7.57;;;;;;;;;;5042722;28;20234;-82
2022/03/27 13:56:07;;;;;;;7.97;6.80;;;;;;;;;;5040376;28;20234;-83
2022/03/27 13:58:35;;;;;;;7.63;6.53;;;;;;;;;;5042474;28;20707;-83
2022/03/27 14:01:02;;;;;;;8.25;6.80;;;;;;;;;;5039116;28;20242;-82
2022/03/27 14:03:29;;;;;;;9.75;6.45;;;;;;;;;;5039275;28;20202;-82
2022/03/27 14:05:57;;;;;;;7.38;6.38;;;;;;;;;;5037094;28;20285;-82
2022/03/27 14:08:24;;;;;;;9.98;7.20;;;;;;;;;;5037111;28;20241;-82
2022/03/27 14:10:52;;;;;;;8.48;6.25;;;;;;;;;;5034760;28;20316;-83
2022/03/27 14:13:20;;;;;;;7.50;6.70;;;;;;;;;;5042563;28;20681;-85
2022/03/27 14:15:47;;;;;;;7.47;6.78;;;;;;;;;;5034507;28;20245;-83
2022/03/27 14:18:15;;;;;;;8.32;6.75;;;;;;;;;;5038513;28;20218;-84
2022/03/27 14:20:42;;;;;;;8.40;6.50;;;;;;;;;;5037605;28;20249;-83
2022/03/27 14:23:10;;;;;;;7.32;6.70;;;;;;;;;;5037144;28;20663;-85
2022/03/27 14:25:37;;;;;;;9.23;6.97;;;;;;;;;;5036946;28;20240;-85
2022/03/27 14:28:04;;;;;;;6.70;6.05;;;;;;;;;;5040354;28;20207;-86
2022/03/27 14:30:34;;;;;;;6.15;5.35;;;;;;;;;;5042638;28;20234;-85
2022/03/27 14:33:02;;;;;;;7.13;5.55;;;;;;;;;;5043978;28;20219;-86
2022/03/27 14:35:29;;;;;;;6.88;6.20;;;;;;;;;;5025161;28;20235;-86
2022/03/27 14:37:56;;;;;;;6.10;5.45;;;;;;;;;;5025512;28;20214;-86
2022/03/27 14:40:23;;;;;;;7.32;5.90;;;;;;;;;;5042279;28;20243;-86
2022/03/27 14:42:50;;;;;;;6.45;5.82;;;;;;;;;;5024445;28;20200;-85
2022/03/27 14:45:17;;;;;;;8.32;5.70;;;;;;;;;;5019257;28;20234;-86
2022/03/27 14:47:46;;;;;;;6.13;5.25;;;;;;;;;;5039393;28;20194;-86